Fireboat Challenger — WR8183 — position and weather

sailwx.info

Track history (hours):
 
Tides and Currents Weather Stations Pressure Air Temp Water Temp Dewpoint Dewpoint Depression Visibility Wind Speed Wind Dir Waves Ship Positions

Fireboat Challenger

Owner: Long Beach, City of, LONG BEACH, CA. More information available from US FCC via Universal Licensing System and Coast Guard Vessel Documentation Center.

Last reported at 2015-May-29 19:33 UTC. Time now 2015-May-29 20:29 UTC.
Position N 33°45' W 118°13'.

Length 29 m.

MMSI: 367067790.

Date/timePositionNaut miles runAvg speedWind from/ knotsBaromVisibWave heightAir tempDewpointWater temp
2015-May-29 19:33N 33°45' W 118°13'0 0.0
2015-May-29 18:33N 33°45' W 118°13'0 0.0
2015-May-29 17:33N 33°45' W 118°13'0 0.0
2015-May-29 01:08N 33°45' W 118°13'0 0.0
2015-May-28 23:31N 33°45' W 118°13'0 0.0
2015-May-28 22:33N 33°45' W 118°13'0 0.0
2015-May-28 21:28N 33°45' W 118°13'0 0.0
2015-May-28 20:33N 33°45' W 118°13'0 0.0
2015-May-28 19:33N 33°45' W 118°13'0 0.0
2015-May-28 18:33N 33°45' W 118°13'0 0.0
2015-May-28 17:33N 33°45' W 118°13'0 0.0
2015-May-28 16:33N 33°45' W 118°13'0 0.0
2015-May-28 15:33N 33°45' W 118°13'0 0.0
2015-May-28 14:26N 33°45' W 118°13'0 0.0
2015-May-28 13:26N 33°45' W 118°13'0 0.0
2015-May-28 11:33N 33°45' W 118°13'0 0.0
2015-May-28 10:29N 33°45' W 118°13'0 0.0
2015-May-28 09:25N 33°45' W 118°13'0 0.0
2015-May-28 08:20N 33°45' W 118°13'0 0.0
2015-May-28 07:21N 33°45' W 118°13'0 0.0
2015-May-28 02:28N 33°45' W 118°13'0 0.0
2015-May-27 22:18N 33°45' W 118°13'0 0.0
2015-May-27 21:33N 33°45' W 118°13'0 0.0
2015-May-27 20:33N 33°45' W 118°13'0 0.0
2015-May-27 19:33N 33°45' W 118°13'0 0.0
2015-May-27 18:33N 33°45' W 118°13'0 0.0
2015-May-27 17:33N 33°45' W 118°13'0 0.0
2015-May-27 16:33N 33°45' W 118°13'0 0.0
2015-May-27 15:28N 33°45' W 118°13'0 0.0
2015-May-27 02:20N 33°45' W 118°13'0 0.0
2015-May-27 01:15N 33°45' W 118°13'0 0.0
2015-May-26 23:33N 33°45' W 118°13'0 0.0
2015-May-26 22:27N 33°45' W 118°13'0 0.0
2015-May-26 21:33N 33°45' W 118°13'0 0.0
2015-May-26 20:32N 33°45' W 118°13'0 0.0
2015-May-26 19:33N 33°45' W 118°13'0 0.0
2015-May-26 18:12N 33°45' W 118°13'0 0.0
2015-May-26 17:33N 33°45' W 118°13'0 0.0
2015-May-26 16:33N 33°45' W 118°13'0 0.0
2015-May-26 15:34N 33°45' W 118°13'0 0.4
2015-May-26 14:33N 33°44' W 118°13'0 0.4
2015-May-26 13:33N 33°45' W 118°13'0 0.0
2015-May-26 12:33N 33°45' W 118°13'0 0.0
2015-May-26 11:33N 33°45' W 118°13'0 0.0
2015-May-26 10:33N 33°45' W 118°13'0 0.0
2015-May-26 09:33N 33°45' W 118°13'0 0.0
2015-May-26 08:29N 33°45' W 118°13'0 0.0
2015-May-26 07:33N 33°45' W 118°13'0 0.0
2015-May-26 06:33N 33°45' W 118°13'0 0.0
2015-May-26 05:33N 33°45' W 118°13'0 0.0
2015-May-26 04:19N 33°45' W 118°13'0 0.0
2015-May-26 03:28N 33°45' W 118°13'0 0.0
2015-May-26 02:33N 33°45' W 118°13'0 0.0
2015-May-26 01:25N 33°45' W 118°13'0 0.0
2015-May-26 00:19N 33°45' W 118°13'0 0.0
2015-May-25 23:34N 33°45' W 118°13'0 0.0
2015-May-25 22:34N 33°45' W 118°13'0 0.0
2015-May-25 21:33N 33°45' W 118°13'0 0.0
2015-May-25 20:33N 33°45' W 118°13'0 0.0
2015-May-25 19:33N 33°45' W 118°13'0 0.0
2015-May-25 18:33N 33°45' W 118°13'0 0.0
2015-May-25 17:33N 33°45' W 118°13'0 0.0
2015-May-25 16:34N 33°45' W 118°13'0 0.0
2015-May-25 01:30N 33°45' W 118°13'0 0.0
2015-May-25 00:31N 33°45' W 118°13'0 0.0
2015-May-24 23:32N 33°45' W 118°13'0 0.0
2015-May-24 22:33N 33°45' W 118°13'0 0.0
2015-May-24 21:32N 33°45' W 118°13'0 0.0
2015-May-24 20:25N 33°45' W 118°13'0 0.0
2015-May-23 23:31N 33°45' W 118°13'5 4.9
2015-May-23 22:30N 33°45' W 118°07'1 0.7
2015-May-23 21:20N 33°44' W 118°08'2 2.0
2015-May-23 20:33N 33°45' W 118°09'0 0.2
2015-May-23 19:34N 33°45' W 118°09'3 3.2
2015-May-23 18:33N 33°45' W 118°13'0 0.0
2015-May-23 17:33N 33°45' W 118°13'0 0.0
2015-May-23 16:33N 33°45' W 118°13'0 0.0
2015-May-23 00:27N 33°45' W 118°13'0 0.0
2015-May-22 23:13N 33°45' W 118°13'0 0.0
2015-May-22 22:31N 33°45' W 118°13'0 0.0
2015-May-22 21:31N 33°45' W 118°13'0 0.0
2015-May-22 20:17N 33°45' W 118°13'0 0.0
2015-May-22 19:27N 33°45' W 118°13'0 0.0
2015-May-22 18:33N 33°45' W 118°13'2 1.5
2015-May-22 17:33N 33°45' W 118°11'2 1.4
2015-May-22 16:26N 33°45' W 118°13'0 0.0
2015-May-20 22:33N 33°45' W 118°13'0 0.0
2015-May-20 17:18N 33°45' W 118°13'1 0.0
2015-May-20 02:07N 33°44' W 118°12'2 2.7
2015-May-20 01:33N 33°46' W 118°12'1 1.4
2015-May-20 00:33N 33°45' W 118°13'0 0.0
2015-May-19 23:18N 33°45' W 118°13'0 0.0
2015-May-19 22:17N 33°45' W 118°13'0 0.0
2015-May-19 21:25N 33°45' W 118°13'0 0.0
2015-May-19 20:15N 33°45' W 118°13'  
Track history (hours):
 
Tides and Currents Weather Stations Pressure Air Temp Water Temp Dewpoint Dewpoint Depression Visibility Wind Speed Wind Dir Waves Ship Positions

Fireboat Challenger

Owner: Long Beach, City of, LONG BEACH, CA. More information available from US FCC via Universal Licensing System and Coast Guard Vessel Documentation Center.

Last reported at 2015-May-29 19:33 UTC. Time now 2015-May-29 20:29 UTC.
Position N 33°45' W 118°13'.

Length 29 m.

MMSI: 367067790.

Date/timePositionNaut miles runAvg speedWind from/ knotsBaromVisibWave heightAir tempDewpointWater temp
2015-May-29 19:33N 33°45' W 118°13'0 0.0
2015-May-29 18:33N 33°45' W 118°13'0 0.0
2015-May-29 17:33N 33°45' W 118°13'0 0.0
2015-May-29 01:08N 33°45' W 118°13'0 0.0
2015-May-28 23:31N 33°45' W 118°13'0 0.0
2015-May-28 22:33N 33°45' W 118°13'0 0.0
2015-May-28 21:28N 33°45' W 118°13'0 0.0
2015-May-28 20:33N 33°45' W 118°13'0 0.0
2015-May-28 19:33N 33°45' W 118°13'0 0.0
2015-May-28 18:33N 33°45' W 118°13'0 0.0
2015-May-28 17:33N 33°45' W 118°13'0 0.0
2015-May-28 16:33N 33°45' W 118°13'0 0.0
2015-May-28 15:33N 33°45' W 118°13'0 0.0
2015-May-28 14:26N 33°45' W 118°13'0 0.0
2015-May-28 13:26N 33°45' W 118°13'0 0.0
2015-May-28 11:33N 33°45' W 118°13'0 0.0
2015-May-28 10:29N 33°45' W 118°13'0 0.0
2015-May-28 09:25N 33°45' W 118°13'0 0.0
2015-May-28 08:20N 33°45' W 118°13'0 0.0
2015-May-28 07:21N 33°45' W 118°13'0 0.0
2015-May-28 02:28N 33°45' W 118°13'0 0.0
2015-May-27 22:18N 33°45' W 118°13'0 0.0
2015-May-27 21:33N 33°45' W 118°13'0 0.0
2015-May-27 20:33N 33°45' W 118°13'0 0.0
2015-May-27 19:33N 33°45' W 118°13'0 0.0
2015-May-27 18:33N 33°45' W 118°13'0 0.0
2015-May-27 17:33N 33°45' W 118°13'0 0.0
2015-May-27 16:33N 33°45' W 118°13'0 0.0
2015-May-27 15:28N 33°45' W 118°13'0 0.0
2015-May-27 02:20N 33°45' W 118°13'0 0.0
2015-May-27 01:15N 33°45' W 118°13'0 0.0
2015-May-26 23:33N 33°45' W 118°13'0 0.0
2015-May-26 22:27N 33°45' W 118°13'0 0.0
2015-May-26 21:33N 33°45' W 118°13'0 0.0
2015-May-26 20:32N 33°45' W 118°13'0 0.0
2015-May-26 19:33N 33°45' W 118°13'0 0.0
2015-May-26 18:12N 33°45' W 118°13'0 0.0
2015-May-26 17:33N 33°45' W 118°13'0 0.0
2015-May-26 16:33N 33°45' W 118°13'0 0.0
2015-May-26 15:34N 33°45' W 118°13'0 0.4
2015-May-26 14:33N 33°44' W 118°13'0 0.4
2015-May-26 13:33N 33°45' W 118°13'0 0.0
2015-May-26 12:33N 33°45' W 118°13'0 0.0
2015-May-26 11:33N 33°45' W 118°13'0 0.0
2015-May-26 10:33N 33°45' W 118°13'0 0.0
2015-May-26 09:33N 33°45' W 118°13'0 0.0
2015-May-26 08:29N 33°45' W 118°13'0 0.0
2015-May-26 07:33N 33°45' W 118°13'0 0.0
2015-May-26 06:33N 33°45' W 118°13'0 0.0
2015-May-26 05:33N 33°45' W 118°13'0 0.0
2015-May-26 04:19N 33°45' W 118°13'0 0.0
2015-May-26 03:28N 33°45' W 118°13'0 0.0
2015-May-26 02:33N 33°45' W 118°13'0 0.0
2015-May-26 01:25N 33°45' W 118°13'0 0.0
2015-May-26 00:19N 33°45' W 118°13'0 0.0
2015-May-25 23:34N 33°45' W 118°13'0 0.0
2015-May-25 22:34N 33°45' W 118°13'0 0.0
2015-May-25 21:33N 33°45' W 118°13'0 0.0
2015-May-25 20:33N 33°45' W 118°13'0 0.0
2015-May-25 19:33N 33°45' W 118°13'0 0.0
2015-May-25 18:33N 33°45' W 118°13'0 0.0
2015-May-25 17:33N 33°45' W 118°13'0 0.0
2015-May-25 16:34N 33°45' W 118°13'0 0.0
2015-May-25 01:30N 33°45' W 118°13'0 0.0
2015-May-25 00:31N 33°45' W 118°13'0 0.0
2015-May-24 23:32N 33°45' W 118°13'0 0.0
2015-May-24 22:33N 33°45' W 118°13'0 0.0
2015-May-24 21:32N 33°45' W 118°13'0 0.0
2015-May-24 20:25N 33°45' W 118°13'0 0.0
2015-May-23 23:31N 33°45' W 118°13'5 4.9
2015-May-23 22:30N 33°45' W 118°07'1 0.7
2015-May-23 21:20N 33°44' W 118°08'2 2.0
2015-May-23 20:33N 33°45' W 118°09'0 0.2
2015-May-23 19:34N 33°45' W 118°09'3 3.2
2015-May-23 18:33N 33°45' W 118°13'0 0.0
2015-May-23 17:33N 33°45' W 118°13'0 0.0
2015-May-23 16:33N 33°45' W 118°13'0 0.0
2015-May-23 00:27N 33°45' W 118°13'0 0.0
2015-May-22 23:13N 33°45' W 118°13'0 0.0
2015-May-22 22:31N 33°45' W 118°13'0 0.0
2015-May-22 21:31N 33°45' W 118°13'0 0.0
2015-May-22 20:17N 33°45' W 118°13'0 0.0
2015-May-22 19:27N 33°45' W 118°13'0 0.0
2015-May-22 18:33N 33°45' W 118°13'2 1.5
2015-May-22 17:33N 33°45' W 118°11'2 1.4
2015-May-22 16:26N 33°45' W 118°13'0 0.0
2015-May-20 22:33N 33°45' W 118°13'0 0.0
2015-May-20 17:18N 33°45' W 118°13'1 0.0
2015-May-20 02:07N 33°44' W 118°12'2 2.7
2015-May-20 01:33N 33°46' W 118°12'1 1.4
2015-May-20 00:33N 33°45' W 118°13'0 0.0
2015-May-19 23:18N 33°45' W 118°13'0 0.0
2015-May-19 22:17N 33°45' W 118°13'0 0.0
2015-May-19 21:25N 33°45' W 118°13'0 0.0
2015-May-19 20:15N 33°45' W 118°13'  

Dump ship's entire track history